createdAt,value
2023-05-04T00:01:28.546Z,2.30
2023-05-04T00:03:59.593Z,2.35
2023-05-04T00:06:26.630Z,2.08
2023-05-04T00:08:53.150Z,2.30
2023-05-04T00:11:19.947Z,2.42
2023-05-04T00:13:54.790Z,2.75
2023-05-04T00:16:21.885Z,2.85
2023-05-04T00:18:48.380Z,2.97
2023-05-04T00:21:14.973Z,4.93
2023-05-04T00:23:45.853Z,3.85
2023-05-04T00:26:12.310Z,3.47
2023-05-04T00:28:38.815Z,2.75
2023-05-04T00:31:05.759Z,3.08
2023-05-04T00:33:32.224Z,2.42
2023-05-04T00:35:58.707Z,2.65
2023-05-04T00:38:25.156Z,2.78
2023-05-04T00:40:51.649Z,2.53
2023-05-04T00:43:24.153Z,2.30
2023-05-04T00:45:51.195Z,2.22
2023-05-04T00:48:17.815Z,2.20
2023-05-04T00:50:44.382Z,2.72
2023-05-04T00:53:21.972Z,2.17
2023-05-04T00:55:48.674Z,2.97
2023-05-04T00:58:15.599Z,2.70
2023-05-04T01:00:42.463Z,2.50
2023-05-04T01:03:10.317Z,2.25
2023-05-04T01:05:45.806Z,2.65
2023-05-04T01:08:20.862Z,2.85
2023-05-04T01:11:04.628Z,2.35
2023-05-04T01:13:35.232Z,2.70
2023-05-04T01:16:03.233Z,2.95
2023-05-04T01:18:30.125Z,2.95
2023-05-04T01:20:56.643Z,2.25
2023-05-04T01:23:23.555Z,2.40
2023-05-04T01:26:15.972Z,2.67
2023-05-04T01:29:05.188Z,2.40
2023-05-04T01:31:36.372Z,2.50
2023-05-04T01:34:04.996Z,2.17
2023-05-04T01:36:38.156Z,3.00
2023-05-04T01:39:05.972Z,2.83
2023-05-04T01:41:32.439Z,2.53
2023-05-04T01:43:59.022Z,2.50
2023-05-04T01:46:25.649Z,2.40
2023-05-04T01:48:52.474Z,2.38
2023-05-04T01:51:19.248Z,2.42
2023-05-04T01:53:45.714Z,2.22
2023-05-04T01:56:12.286Z,2.65
2023-05-04T01:58:38.749Z,2.58
2023-05-04T02:01:05.552Z,2.60
2023-05-04T02:03:32.157Z,2.35
2023-05-04T02:06:01.012Z,2.50
2023-05-04T02:08:27.500Z,2.15
2023-05-04T02:10:53.996Z,2.30
2023-05-04T02:13:20.504Z,2.20
2023-05-04T02:15:47.181Z,2.50
2023-05-04T02:18:13.765Z,2.28
2023-05-04T02:20:40.221Z,2.40
2023-05-04T02:23:07.022Z,2.10
2023-05-04T02:25:33.478Z,2.60
2023-05-04T02:27:59.957Z,2.00
2023-05-04T02:30:26.615Z,2.28
2023-05-04T02:32:53.212Z,2.38
2023-05-04T02:35:19.749Z,2.13
2023-05-04T02:37:46.231Z,2.67
2023-05-04T02:40:13.380Z,1.90
2023-05-04T02:42:39.820Z,1.90
2023-05-04T02:45:07.572Z,2.08
2023-05-04T02:47:34.286Z,2.00
2023-05-04T02:50:21.214Z,3.03
2023-05-04T02:52:47.639Z,2.70
2023-05-04T02:55:14.220Z,2.60
2023-05-04T02:57:40.901Z,3.40
2023-05-04T03:00:08.197Z,2.60
2023-05-04T03:02:34.852Z,2.63
2023-05-04T03:05:01.456Z,2.42
2023-05-04T03:07:31.340Z,2.45
2023-05-04T03:09:57.862Z,2.70
2023-05-04T03:12:27.490Z,2.20
2023-05-04T03:14:53.961Z,2.55
2023-05-04T03:17:20.445Z,2.33
2023-05-04T03:19:47.186Z,2.85
2023-05-04T03:22:19.516Z,2.78
2023-05-04T03:24:46.146Z,2.45
2023-05-04T03:27:12.909Z,2.55
2023-05-04T03:29:39.493Z,2.45
2023-05-04T03:32:06.743Z,2.60
2023-05-04T03:34:33.391Z,2.42
2023-05-04T03:37:00.190Z,2.45
2023-05-04T03:39:27.035Z,2.58
2023-05-04T03:41:53.549Z,2.67
2023-05-04T03:44:20.092Z,2.95
2023-05-04T03:47:13.015Z,2.90
2023-05-04T03:49:39.693Z,2.85
2023-05-04T03:52:06.626Z,2.72
2023-05-04T03:54:33.079Z,2.38
2023-05-04T03:56:59.547Z,2.63
2023-05-04T03:59:26.265Z,2.35
2023-05-04T04:01:52.880Z,2.60
2023-05-04T04:04:19.309Z,2.88
2023-05-04T04:06:45.867Z,2.70
2023-05-04T04:09:12.370Z,3.00
2023-05-04T04:11:38.857Z,2.95
2023-05-04T04:14:05.519Z,2.95
2023-05-04T04:16:32.170Z,3.03
2023-05-04T04:18:58.985Z,2.88
2023-05-04T04:21:26.260Z,3.40
2023-05-04T04:23:52.799Z,3.92
2023-05-04T04:26:20.626Z,3.97
2023-05-04T04:28:50.473Z,2.90
2023-05-04T04:31:20.532Z,3.38
2023-05-04T04:33:47.365Z,3.50
2023-05-04T04:36:16.683Z,3.38
2023-05-04T04:38:46.415Z,2.92
2023-05-04T04:41:13.037Z,2.97
2023-05-04T04:43:41.495Z,3.00
2023-05-04T04:46:10.864Z,3.25
2023-05-04T04:48:37.740Z,3.08
2023-05-04T04:51:07.197Z,3.10
2023-05-04T04:53:33.698Z,3.20
2023-05-04T04:56:00.232Z,3.45
2023-05-04T04:58:26.700Z,3.42
2023-05-04T05:00:58.331Z,3.55
2023-05-04T05:03:25.327Z,3.50
2023-05-04T05:05:51.936Z,3.45
2023-05-04T05:08:27.160Z,4.03
2023-05-04T05:10:53.906Z,3.97
2023-05-04T05:13:20.386Z,5.35
2023-05-04T05:15:46.900Z,5.00
2023-05-04T05:18:13.603Z,5.50
2023-05-04T05:20:40.090Z,5.20
2023-05-04T05:23:06.599Z,6.20
2023-05-04T05:25:36.214Z,17.67
2023-05-04T05:28:02.682Z,27.35
2023-05-04T05:30:29.206Z,19.60
2023-05-04T05:32:55.713Z,13.90
2023-05-04T05:35:22.268Z,22.45
2023-05-04T05:37:49.211Z,28.05
2023-05-04T05:40:15.701Z,18.38
2023-05-04T05:42:42.852Z,20.58
2023-05-04T05:45:10.877Z,15.23
2023-05-04T05:47:37.554Z,9.68
2023-05-04T05:50:06.541Z,8.60
2023-05-04T05:52:33.202Z,11.80
2023-05-04T05:55:02.217Z,16.38
2023-05-04T05:57:29.426Z,10.90
2023-05-04T05:59:56.632Z,10.30
2023-05-04T06:02:23.502Z,8.70
2023-05-04T06:04:50.244Z,9.30
2023-05-04T06:07:17.792Z,9.50
2023-05-04T06:09:44.409Z,7.40
2023-05-04T06:12:13.463Z,5.93
2023-05-04T06:14:43.928Z,5.85
2023-05-04T06:17:10.586Z,5.40
2023-05-04T06:19:40.338Z,4.70
2023-05-04T06:22:11.806Z,3.83
2023-05-04T06:24:38.290Z,3.92
2023-05-04T06:27:19.175Z,3.63
2023-05-04T06:29:46.546Z,3.75
2023-05-04T06:32:13.166Z,3.33
2023-05-04T06:34:39.717Z,3.80
2023-05-04T06:37:06.206Z,4.22
2023-05-04T06:39:33.453Z,5.68
2023-05-04T06:41:59.989Z,4.30
2023-05-04T06:44:27.799Z,11.55
2023-05-04T06:46:54.316Z,4.93
2023-05-04T06:49:20.885Z,5.50
2023-05-04T06:51:47.359Z,5.28
2023-05-04T06:54:13.887Z,3.70
2023-05-04T06:56:40.449Z,5.63
2023-05-04T06:59:08.099Z,3.60
2023-05-04T07:01:34.704Z,4.90
2023-05-04T07:04:01.338Z,3.78
2023-05-04T07:06:28.547Z,3.85
2023-05-04T07:08:55.172Z,4.40
2023-05-04T07:11:22.018Z,3.80
2023-05-04T07:13:48.578Z,3.53
2023-05-04T07:16:15.165Z,17.23
2023-05-04T07:18:41.647Z,4.28
2023-05-04T07:21:26.672Z,4.57
2023-05-04T07:23:54.928Z,3.78
2023-05-04T07:26:22.782Z,6.07
2023-05-04T07:28:49.287Z,4.07
2023-05-04T07:31:16.057Z,4.30
2023-05-04T07:33:46.131Z,5.70
2023-05-04T07:36:12.589Z,4.35
2023-05-04T07:38:39.164Z,4.25
2023-05-04T07:41:07.096Z,3.70
2023-05-04T07:43:33.549Z,4.35
2023-05-04T07:46:00.067Z,3.85
2023-05-04T07:48:26.853Z,3.83
2023-05-04T07:50:56.701Z,4.32
2023-05-04T07:53:25.348Z,4.43
2023-05-04T07:55:55.174Z,6.30
2023-05-04T07:58:23.796Z,4.38
2023-05-04T08:00:50.264Z,6.00
2023-05-04T08:03:16.801Z,4.32
2023-05-04T08:05:43.378Z,5.20
2023-05-04T08:08:09.909Z,9.27
2023-05-04T08:10:37.237Z,5.03
2023-05-04T08:13:05.288Z,4.05
2023-05-04T08:15:31.913Z,4.10
2023-05-04T08:17:58.509Z,4.63
2023-05-04T08:20:25.120Z,20.55
2023-05-04T08:22:52.025Z,5.38
2023-05-04T08:25:18.542Z,4.40
2023-05-04T08:27:45.746Z,3.55
2023-05-04T08:30:13.017Z,4.20
2023-05-04T08:32:40.187Z,4.10
2023-05-04T08:35:07.180Z,5.00
2023-05-04T08:37:33.969Z,8.30
2023-05-04T08:40:00.573Z,5.03
2023-05-04T08:42:34.523Z,31.13
2023-05-04T08:45:01.344Z,5.57
2023-05-04T08:47:31.718Z,4.00
2023-05-04T08:49:58.449Z,15.60
2023-05-04T08:52:26.908Z,6.15
2023-05-04T08:54:56.660Z,3.45
2023-05-04T08:57:24.767Z,9.88
2023-05-04T08:59:54.077Z,3.25
2023-05-04T09:02:24.646Z,3.65
2023-05-04T09:04:52.684Z,4.80
2023-05-04T09:07:21.346Z,3.58
2023-05-04T09:09:50.721Z,3.60
2023-05-04T09:12:18.117Z,3.50
2023-05-04T09:14:46.289Z,3.85
2023-05-04T09:17:25.351Z,4.25
2023-05-04T09:20:03.504Z,4.03
2023-05-04T09:22:30.922Z,3.17
2023-05-04T09:25:12.818Z,3.22
2023-05-04T09:27:42.574Z,3.42
2023-05-04T09:30:09.856Z,3.10
2023-05-04T09:32:45.996Z,3.92
2023-05-04T09:35:18.869Z,3.35
2023-05-04T09:37:57.787Z,3.80
2023-05-04T09:40:41.485Z,5.25
2023-05-04T09:43:10.547Z,3.80
2023-05-04T09:45:45.022Z,2.80
2023-05-04T09:48:25.442Z,3.08
2023-05-04T09:51:00.339Z,4.60
2023-05-04T09:53:30.040Z,4.88
2023-05-04T09:56:02.199Z,3.75
2023-05-04T09:58:31.664Z,3.78
2023-05-04T10:01:01.703Z,3.47
2023-05-04T10:03:29.498Z,3.33
2023-05-04T10:05:59.860Z,3.05
2023-05-04T10:08:28.085Z,3.40
2023-05-04T10:10:55.211Z,3.08
2023-05-04T10:13:21.748Z,7.75
2023-05-04T10:16:26.639Z,3.20
2023-05-04T10:19:37.088Z,16.70
2023-05-04T10:22:37.286Z,3.50
2023-05-04T10:25:30.729Z,3.15
2023-05-04T10:28:13.049Z,2.35
2023-05-04T10:30:40.077Z,3.13
2023-05-04T10:33:06.741Z,2.78
2023-05-04T10:35:33.312Z,2.65
2023-05-04T10:38:00.675Z,2.42
2023-05-04T10:40:40.677Z,2.40
2023-05-04T10:43:08.576Z,2.60
2023-05-04T10:45:42.598Z,2.70
2023-05-04T10:48:09.872Z,2.83
2023-05-04T10:51:02.669Z,2.65
2023-05-04T10:53:33.016Z,2.13
2023-05-04T10:55:59.861Z,2.30
2023-05-04T10:58:29.635Z,2.60
2023-05-04T11:00:56.229Z,2.08
2023-05-04T11:03:24.759Z,3.95
2023-05-04T11:05:54.471Z,2.78
2023-05-04T11:08:25.937Z,2.58
2023-05-04T11:11:04.975Z,2.28
2023-05-04T11:13:34.973Z,2.70
2023-05-04T11:16:02.319Z,2.63
2023-05-04T11:18:31.865Z,2.47
2023-05-04T11:20:58.682Z,2.33
2023-05-04T11:23:25.999Z,2.63
2023-05-04T11:25:53.254Z,2.83
2023-05-04T11:28:19.826Z,2.33
2023-05-04T11:30:47.932Z,2.40
2023-05-04T11:33:19.068Z,4.38
2023-05-04T11:35:45.592Z,2.13
2023-05-04T11:38:19.958Z,2.05
2023-05-04T11:40:48.476Z,2.67
2023-05-04T11:43:16.191Z,2.28
2023-05-04T11:45:44.749Z,2.35
2023-05-04T11:48:12.982Z,2.90
2023-05-04T11:50:39.746Z,2.38
2023-05-04T11:53:12.019Z,2.50
2023-05-04T11:55:39.061Z,2.40
2023-05-04T11:58:11.090Z,2.28
2023-05-04T12:00:46.536Z,2.22
2023-05-04T12:05:55.130Z,3.67
2023-05-04T12:08:32.266Z,2.90
2023-05-04T12:11:25.289Z,2.45
2023-05-04T12:14:10.255Z,2.22
2023-05-04T12:16:38.409Z,2.05
2023-05-04T12:19:15.130Z,2.55
2023-05-04T12:21:54.392Z,3.40
2023-05-04T12:24:22.334Z,2.60
2023-05-04T12:26:49.605Z,2.83
2023-05-04T12:29:16.253Z,2.42
2023-05-04T12:31:42.736Z,2.92
2023-05-04T12:34:09.211Z,3.13
2023-05-04T12:36:35.718Z,3.53
2023-05-04T12:39:02.226Z,2.65
2023-05-04T12:41:31.095Z,2.47
2023-05-04T12:43:57.705Z,2.60
2023-05-04T12:46:24.260Z,2.67
2023-05-04T12:48:51.050Z,2.80
2023-05-04T12:51:17.638Z,2.50
2023-05-04T12:53:44.134Z,2.53
2023-05-04T12:56:10.622Z,2.33
2023-05-04T12:58:37.136Z,2.40
2023-05-04T13:01:03.768Z,2.10
2023-05-04T13:03:30.469Z,2.13
2023-05-04T13:05:57.717Z,2.45
2023-05-04T13:08:24.304Z,2.15
2023-05-04T13:10:51.238Z,2.40
2023-05-04T13:13:18.874Z,2.30
2023-05-04T13:15:49.886Z,2.63
2023-05-04T13:18:16.362Z,2.67
2023-05-04T13:20:42.811Z,2.40
2023-05-04T13:23:09.293Z,2.97
2023-05-04T13:25:36.079Z,2.53
2023-05-04T13:28:03.391Z,3.53
2023-05-04T13:30:29.970Z,2.67
2023-05-04T13:32:56.614Z,2.28
2023-05-04T13:35:23.768Z,2.80
2023-05-04T13:37:50.883Z,2.67
2023-05-04T13:40:17.838Z,3.28
2023-05-04T13:42:44.564Z,3.97
2023-05-04T13:45:11.501Z,3.53
2023-05-04T13:47:38.079Z,2.70
2023-05-04T13:50:05.135Z,2.67
2023-05-04T13:52:32.376Z,2.88
2023-05-04T13:54:59.707Z,2.47
2023-05-04T13:57:29.766Z,2.72
2023-05-04T14:00:06.630Z,3.10
2023-05-04T14:02:34.832Z,2.50
2023-05-04T14:05:02.675Z,2.90
2023-05-04T14:07:29.946Z,2.92
2023-05-04T14:09:56.635Z,2.83
2023-05-04T14:12:23.196Z,3.00
2023-05-04T14:14:50.687Z,3.00
2023-05-04T14:17:17.577Z,2.85
2023-05-04T14:19:45.208Z,2.92
2023-05-04T14:22:12.812Z,3.10
2023-05-04T14:24:39.559Z,2.65
2023-05-04T14:27:06.092Z,2.60
2023-05-04T14:29:33.500Z,3.15
2023-05-04T14:32:00.842Z,3.78
2023-05-04T14:34:30.412Z,2.70
2023-05-04T14:36:57.571Z,3.28
2023-05-04T14:39:24.914Z,2.85
2023-05-04T14:41:52.753Z,2.55
2023-05-04T14:44:22.392Z,2.70
2023-05-04T14:46:48.941Z,2.67
2023-05-04T14:49:21.747Z,3.05
2023-05-04T14:52:02.068Z,3.72
2023-05-04T14:54:28.631Z,2.90
2023-05-04T14:56:55.075Z,4.18
2023-05-04T14:59:21.542Z,2.60
2023-05-04T15:01:48.110Z,2.50
2023-05-04T15:04:14.664Z,2.75
2023-05-04T15:06:41.205Z,2.80
2023-05-04T15:09:08.512Z,2.83
2023-05-04T15:11:35.057Z,2.83
2023-05-04T15:14:01.912Z,2.42
2023-05-04T15:16:32.290Z,2.60
2023-05-04T15:18:59.646Z,2.58
2023-05-04T15:21:27.756Z,2.63
2023-05-04T15:23:54.206Z,2.70
2023-05-04T15:26:20.661Z,2.90
2023-05-04T15:28:47.103Z,2.70
2023-05-04T15:31:17.188Z,2.80
2023-05-04T15:33:44.051Z,3.13
2023-05-04T15:36:10.749Z,2.63
2023-05-04T15:38:37.508Z,2.72
2023-05-04T15:41:05.827Z,3.40
2023-05-04T15:43:33.913Z,2.95
2023-05-04T15:46:00.720Z,2.70
2023-05-04T15:48:33.112Z,2.60
2023-05-04T15:50:59.875Z,2.80
2023-05-04T15:53:26.995Z,2.70
2023-05-04T15:55:53.533Z,2.78
2023-05-04T15:58:20.141Z,2.50
2023-05-04T16:00:46.674Z,2.90
2023-05-04T16:03:13.236Z,3.00
2023-05-04T16:05:40.046Z,3.55
2023-05-04T16:08:06.544Z,2.70
2023-05-04T16:10:34.103Z,3.22
2023-05-04T16:13:03.953Z,2.97
2023-05-04T16:15:35.129Z,3.00
2023-05-04T16:18:01.822Z,2.95
2023-05-04T16:20:29.341Z,3.00
2023-05-04T16:22:56.211Z,3.00
2023-05-04T16:25:22.924Z,2.75
2023-05-04T16:27:49.529Z,2.45
2023-05-04T16:30:17.085Z,3.42
2023-05-04T16:32:43.594Z,2.72
2023-05-04T16:35:14.259Z,3.15
2023-05-04T16:37:40.741Z,3.00
2023-05-04T16:40:14.106Z,2.70
2023-05-04T16:42:42.577Z,2.85
2023-05-04T16:45:16.381Z,2.95
2023-05-04T16:47:44.192Z,2.70
2023-05-04T16:50:12.261Z,2.55
2023-05-04T16:52:40.135Z,2.55
2023-05-04T16:55:10.661Z,2.50
2023-05-04T16:57:38.270Z,2.60
2023-05-04T17:00:06.661Z,2.53
2023-05-04T17:02:33.598Z,2.80
2023-05-04T17:05:00.186Z,2.97
2023-05-04T17:07:26.753Z,2.78
2023-05-04T17:09:53.221Z,3.10
2023-05-04T17:12:19.835Z,2.42
2023-05-04T17:14:47.134Z,2.67
2023-05-04T17:17:13.675Z,3.00
2023-05-04T17:19:43.033Z,2.83
2023-05-04T17:22:11.081Z,2.53
2023-05-04T17:24:37.723Z,2.47
2023-05-04T17:27:04.541Z,4.95
2023-05-04T17:29:31.161Z,2.90
2023-05-04T17:31:57.714Z,2.75
2023-05-04T17:34:24.229Z,3.13
2023-05-04T17:36:50.914Z,2.63
2023-05-04T17:39:18.661Z,2.50
2023-05-04T17:41:48.860Z,2.28
2023-05-04T17:44:16.316Z,2.70
2023-05-04T17:46:43.273Z,2.90
2023-05-04T17:49:09.959Z,2.88
2023-05-04T17:51:40.023Z,2.50
2023-05-04T17:54:06.670Z,2.53
2023-05-04T17:56:33.265Z,2.40
2023-05-04T17:59:02.856Z,2.60
2023-05-04T18:01:32.413Z,2.50
2023-05-04T18:04:07.937Z,2.70
2023-05-04T18:06:39.005Z,2.35
2023-05-04T18:09:05.628Z,2.70
2023-05-04T18:11:32.270Z,2.50
2023-05-04T18:14:01.597Z,2.38
2023-05-04T18:16:28.152Z,2.65
2023-05-04T18:18:55.620Z,2.97
2023-05-04T18:21:23.547Z,2.30
2023-05-04T18:23:52.160Z,3.35
2023-05-04T18:26:30.558Z,3.42
2023-05-04T18:29:07.469Z,2.65
2023-05-04T18:31:38.053Z,3.38
2023-05-04T18:34:05.790Z,2.40
2023-05-04T18:36:32.619Z,2.70
2023-05-04T18:39:00.515Z,2.60
2023-05-04T18:41:32.339Z,2.90
2023-05-04T18:44:00.787Z,2.63
2023-05-04T18:46:27.486Z,3.88
2023-05-04T18:48:55.028Z,2.88
2023-05-04T18:51:21.578Z,3.25
2023-05-04T18:53:48.640Z,3.00
2023-05-04T18:56:27.144Z,2.53
2023-05-04T18:58:53.679Z,3.08
2023-05-04T19:01:21.878Z,2.53
2023-05-04T19:03:48.586Z,2.25
2023-05-04T19:06:15.206Z,2.50
2023-05-04T19:08:41.796Z,2.78
2023-05-04T19:11:08.372Z,2.45
2023-05-04T19:13:34.827Z,2.63
2023-05-04T19:16:04.040Z,2.33
2023-05-04T19:18:30.594Z,2.97
2023-05-04T19:20:57.366Z,2.67
2023-05-04T19:23:24.777Z,2.72
2023-05-04T19:25:51.284Z,2.63
2023-05-04T19:28:17.796Z,4.28
2023-05-04T19:30:44.329Z,3.80
2023-05-04T19:33:11.029Z,3.20
2023-05-04T19:35:37.616Z,3.00
2023-05-04T19:38:18.161Z,2.97
2023-05-04T19:40:44.673Z,2.50
2023-05-04T19:43:13.769Z,3.33
2023-05-04T19:45:40.821Z,3.08
2023-05-04T19:48:07.595Z,2.92
2023-05-04T19:50:34.348Z,2.97
2023-05-04T19:53:00.830Z,3.38
2023-05-04T19:55:27.355Z,3.80
2023-05-04T19:57:53.850Z,2.92
2023-05-04T20:00:20.606Z,3.33
2023-05-04T20:02:47.183Z,3.35
2023-05-04T20:05:14.192Z,3.78
2023-05-04T20:07:40.873Z,4.07
2023-05-04T20:10:08.401Z,4.13
2023-05-04T20:12:35.310Z,4.93
2023-05-04T20:15:01.943Z,5.93
2023-05-04T20:17:28.712Z,7.70
2023-05-04T20:19:55.356Z,5.15
2023-05-04T20:22:22.144Z,4.10
2023-05-04T20:24:48.639Z,4.50
2023-05-04T20:27:15.206Z,4.10
2023-05-04T20:29:41.693Z,3.70
2023-05-04T20:32:08.942Z,3.72
2023-05-04T20:34:36.229Z,4.13
2023-05-04T20:37:02.786Z,3.38
2023-05-04T20:39:29.273Z,3.45
2023-05-04T20:41:55.767Z,3.60
2023-05-04T20:44:22.346Z,4.00
2023-05-04T20:46:49.015Z,4.30
2023-05-04T20:49:15.530Z,3.88
2023-05-04T20:51:42.141Z,3.88
2023-05-04T20:54:08.718Z,3.33
2023-05-04T20:56:35.277Z,3.72
2023-05-04T20:59:01.860Z,4.00
2023-05-04T21:01:29.549Z,3.78
2023-05-04T21:03:56.420Z,3.63
2023-05-04T21:06:24.272Z,3.58
2023-05-04T21:08:50.888Z,3.88
2023-05-04T21:11:27.133Z,4.07
2023-05-04T21:13:53.790Z,4.00
2023-05-04T21:16:20.368Z,4.88
2023-05-04T21:18:46.913Z,3.30
2023-05-04T21:21:13.499Z,3.70
2023-05-04T21:23:40.008Z,3.85
2023-05-04T21:26:09.144Z,4.25
2023-05-04T21:28:35.754Z,3.70
2023-05-04T21:31:07.592Z,3.78
2023-05-04T21:33:35.911Z,3.58
2023-05-04T21:36:15.557Z,3.70
2023-05-04T21:38:42.572Z,3.80
2023-05-04T21:41:14.264Z,4.05
2023-05-04T21:43:41.556Z,2.97
2023-05-04T21:46:13.099Z,3.60
2023-05-04T21:48:40.161Z,3.53
2023-05-04T21:51:07.039Z,3.90
2023-05-04T21:53:33.685Z,4.00
2023-05-04T21:56:14.449Z,4.18
2023-05-04T21:58:41.063Z,3.60
2023-05-04T22:01:08.209Z,4.22
2023-05-04T22:03:35.538Z,3.80
2023-05-04T22:06:02.311Z,3.60
2023-05-04T22:08:29.692Z,4.25
2023-05-04T22:10:58.546Z,3.85
2023-05-04T22:13:25.925Z,4.18
2023-05-04T22:15:53.461Z,4.50
2023-05-04T22:18:20.954Z,3.75
2023-05-04T22:20:50.773Z,4.80
2023-05-04T22:23:17.299Z,3.83
2023-05-04T22:25:43.839Z,4.55
2023-05-04T22:28:12.164Z,5.00
2023-05-04T22:30:38.811Z,4.30
2023-05-04T22:33:18.630Z,5.45
2023-05-04T22:35:54.093Z,5.38
2023-05-04T22:38:23.115Z,4.63
2023-05-04T22:40:50.143Z,4.00
2023-05-04T22:43:16.788Z,4.25
2023-05-04T22:45:43.246Z,4.05
2023-05-04T22:48:14.006Z,4.47
2023-05-04T22:50:41.181Z,3.80
2023-05-04T22:53:07.876Z,4.32
2023-05-04T22:55:43.412Z,4.00
2023-05-04T22:58:09.911Z,5.85
2023-05-04T23:00:36.401Z,4.38
2023-05-04T23:03:03.651Z,5.60
2023-05-04T23:05:31.136Z,4.15
2023-05-04T23:07:57.600Z,3.83
2023-05-04T23:10:24.144Z,5.30
2023-05-04T23:12:50.622Z,4.97
2023-05-04T23:15:19.229Z,4.53
2023-05-04T23:17:45.798Z,4.20
2023-05-04T23:20:13.359Z,4.18
2023-05-04T23:23:00.045Z,4.43
2023-05-04T23:25:26.586Z,3.88
2023-05-04T23:28:10.830Z,4.70
2023-05-04T23:30:37.315Z,3.88
2023-05-04T23:33:03.980Z,4.05
2023-05-04T23:35:37.656Z,4.00
2023-05-04T23:38:04.264Z,4.43
2023-05-04T23:40:30.729Z,4.07
2023-05-04T23:42:57.441Z,4.18
2023-05-04T23:45:23.957Z,3.53
2023-05-04T23:47:50.531Z,3.85
2023-05-04T23:50:17.350Z,4.28
2023-05-04T23:52:50.544Z,4.10
2023-05-04T23:55:17.164Z,3.72
2023-05-04T23:57:44.038Z,4.10
